Freeport, The Bahamas
Current Conditions -  °F | °C
As of 8:00 PM on Friday 24 Oct 2014 (Local Time) from MYGF Reporting Station
Overcast Overcast  
Wind Chill: 77°   Ceiling: 4000
Heat Index: 78°   Visibility: 6mi
Dew Point: 72°   Wind: 12mph
Humidity: 83%   Direction: 50°NE
Pressure: 29.8"   Gusts: NA
Location:  26.54°N, 78.64°W
Report Text: MYGF 250000Z 05010KT 9999 FEW020 BKN040 OVC100 25/22 A2980
Loading
Personal Weather Stations






























Interactive Weather Map
Tropical Storm Tracking
New forecast layout! Learn more

10-Day Weather Forecast

Advertisements
Track Severe Weather on mobile